sensor_id;sensor_type;location;lat;lon;timestamp;temperature;humidity
10155;DHT22;5118;48.570;7.916;2022-08-01T00:01:33;23.00;64.30
10155;DHT22;5118;48.570;7.916;2022-08-01T00:04:02;22.80;65.10
10155;DHT22;5118;48.570;7.916;2022-08-01T00:06:30;22.70;65.90
10155;DHT22;5118;48.570;7.916;2022-08-01T00:08:59;22.60;66.30
10155;DHT22;5118;48.570;7.916;2022-08-01T00:11:28;22.50;67.20
10155;DHT22;5118;48.570;7.916;2022-08-01T00:13:56;22.40;68.10
10155;DHT22;5118;48.570;7.916;2022-08-01T00:16:26;22.30;68.80
10155;DHT22;5118;48.570;7.916;2022-08-01T00:18:55;22.20;69.20
10155;DHT22;5118;48.570;7.916;2022-08-01T00:21:23;22.10;69.80
10155;DHT22;5118;48.570;7.916;2022-08-01T00:23:52;22.00;70.50
10155;DHT22;5118;48.570;7.916;2022-08-01T00:26:21;22.00;71.20
10155;DHT22;5118;48.570;7.916;2022-08-01T00:28:49;21.90;72.50
10155;DHT22;5118;48.570;7.916;2022-08-01T00:31:18;21.80;72.50
10155;DHT22;5118;48.570;7.916;2022-08-01T00:33:48;21.80;73.70
10155;DHT22;5118;48.570;7.916;2022-08-01T00:36:17;21.80;73.80
10155;DHT22;5118;48.570;7.916;2022-08-01T00:38:45;21.80;74.00
10155;DHT22;5118;48.570;7.916;2022-08-01T00:41:14;21.70;75.10
10155;DHT22;5118;48.570;7.916;2022-08-01T00:43:43;21.70;75.20
10155;DHT22;5118;48.570;7.916;2022-08-01T00:46:11;21.70;76.00
10155;DHT22;5118;48.570;7.916;2022-08-01T00:48:40;21.70;76.60
10155;DHT22;5118;48.570;7.916;2022-08-01T00:51:10;21.70;77.30
10155;DHT22;5118;48.570;7.916;2022-08-01T00:53:40;21.60;77.70
10155;DHT22;5118;48.570;7.916;2022-08-01T00:56:19;21.60;78.40
10155;DHT22;5118;48.570;7.916;2022-08-01T00:58:48;21.60;78.80
10155;DHT22;5118;48.570;7.916;2022-08-01T01:01:17;21.60;79.50
10155;DHT22;5118;48.570;7.916;2022-08-01T01:03:48;21.60;80.70
10155;DHT22;5118;48.570;7.916;2022-08-01T01:06:35;21.60;81.70
10155;DHT22;5118;48.570;7.916;2022-08-01T01:09:26;21.50;82.60
10155;DHT22;5118;48.570;7.916;2022-08-01T01:12:03;21.50;82.80
10155;DHT22;5118;48.570;7.916;2022-08-01T01:14:41;21.40;84.00
10155;DHT22;5118;48.570;7.916;2022-08-01T01:17:16;21.30;84.70
10155;DHT22;5118;48.570;7.916;2022-08-01T01:20:07;21.20;85.00
10155;DHT22;5118;48.570;7.916;2022-08-01T01:22:47;21.20;86.20
10155;DHT22;5118;48.570;7.916;2022-08-01T01:25:40;21.20;90.10
10155;DHT22;5118;48.570;7.916;2022-08-01T01:28:20;21.10;88.60
10155;DHT22;5118;48.570;7.916;2022-08-01T01:30:52;21.10;89.60
10155;DHT22;5118;48.570;7.916;2022-08-01T01:33:22;21.20;90.20
10155;DHT22;5118;48.570;7.916;2022-08-01T01:35:55;21.20;90.50
10155;DHT22;5118;48.570;7.916;2022-08-01T01:38:28;21.20;91.00
10155;DHT22;5118;48.570;7.916;2022-08-01T01:40:57;21.20;91.30
10155;DHT22;5118;48.570;7.916;2022-08-01T01:43:27;21.20;91.40
10155;DHT22;5118;48.570;7.916;2022-08-01T01:46:02;21.10;91.70
10155;DHT22;5118;48.570;7.916;2022-08-01T01:48:32;21.10;92.10
10155;DHT22;5118;48.570;7.916;2022-08-01T01:51:03;21.00;92.70
10155;DHT22;5118;48.570;7.916;2022-08-01T01:53:33;21.00;93.00
10155;DHT22;5118;48.570;7.916;2022-08-01T01:56:03;20.90;93.10
10155;DHT22;5118;48.570;7.916;2022-08-01T01:58:34;20.80;93.30
10155;DHT22;5118;48.570;7.916;2022-08-01T02:01:06;20.80;94.00
10155;DHT22;5118;48.570;7.916;2022-08-01T02:03:42;20.70;94.30
10155;DHT22;5118;48.570;7.916;2022-08-01T02:06:13;20.80;95.50
10155;DHT22;5118;48.570;7.916;2022-08-01T02:08:44;20.70;96.20
10155;DHT22;5118;48.570;7.916;2022-08-01T02:11:13;20.70;96.20
10155;DHT22;5118;48.570;7.916;2022-08-01T02:13:53;20.70;97.10
10155;DHT22;5118;48.570;7.916;2022-08-01T02:16:26;20.60;97.50
10155;DHT22;5118;48.570;7.916;2022-08-01T02:18:55;20.60;97.70
10155;DHT22;5118;48.570;7.916;2022-08-01T02:21:28;20.60;98.00
10155;DHT22;5118;48.570;7.916;2022-08-01T02:24:07;20.60;98.20
10155;DHT22;5118;48.570;7.916;2022-08-01T02:26:39;20.50;98.80
10155;DHT22;5118;48.570;7.916;2022-08-01T02:29:15;20.50;99.30
10155;DHT22;5118;48.570;7.916;2022-08-01T02:31:46;20.50;99.90
10155;DHT22;5118;48.570;7.916;2022-08-01T02:34:17;20.50;99.90
10155;DHT22;5118;48.570;7.916;2022-08-01T02:36:48;20.40;99.90
10155;DHT22;5118;48.570;7.916;2022-08-01T02:39:19;20.30;99.90
10155;DHT22;5118;48.570;7.916;2022-08-01T02:41:57;20.30;99.90
10155;DHT22;5118;48.570;7.916;2022-08-01T02:44:30;20.30;99.90
10155;DHT22;5118;48.570;7.916;2022-08-01T02:47:02;20.20;99.90
10155;DHT22;5118;48.570;7.916;2022-08-01T02:49:33;20.20;99.90
10155;DHT22;5118;48.570;7.916;2022-08-01T02:52:06;20.20;99.90
10155;DHT22;5118;48.570;7.916;2022-08-01T02:54:36;20.10;99.90
10155;DHT22;5118;48.570;7.916;2022-08-01T02:57:08;20.10;99.90
10155;DHT22;5118;48.570;7.916;2022-08-01T02:59:41;20.00;99.90
10155;DHT22;5118;48.570;7.916;2022-08-01T03:02:14;20.00;99.90
10155;DHT22;5118;48.570;7.916;2022-08-01T03:04:44;20.00;99.90
10155;DHT22;5118;48.570;7.916;2022-08-01T03:07:13;19.90;99.90
10155;DHT22;5118;48.570;7.916;2022-08-01T03:09:46;19.90;99.90
10155;DHT22;5118;48.570;7.916;2022-08-01T03:12:19;19.80;99.90
10155;DHT22;5118;48.570;7.916;2022-08-01T03:14:51;19.80;99.90
10155;DHT22;5118;48.570;7.916;2022-08-01T03:17:23;19.70;99.90
10155;DHT22;5118;48.570;7.916;2022-08-01T03:19:53;19.70;99.90
10155;DHT22;5118;48.570;7.916;2022-08-01T03:22:23;19.60;99.90
10155;DHT22;5118;48.570;7.916;2022-08-01T03:24:53;19.60;99.90
10155;DHT22;5118;48.570;7.916;2022-08-01T03:27:23;19.50;99.90
10155;DHT22;5118;48.570;7.916;2022-08-01T03:29:55;19.50;99.90
10155;DHT22;5118;48.570;7.916;2022-08-01T03:32:27;19.50;99.90
10155;DHT22;5118;48.570;7.916;2022-08-01T03:34:56;19.40;99.90
10155;DHT22;5118;48.570;7.916;2022-08-01T03:37:26;19.40;99.90
10155;DHT22;5118;48.570;7.916;2022-08-01T03:40:00;19.40;99.90
10155;DHT22;5118;48.570;7.916;2022-08-01T03:42:32;19.30;99.90
10155;DHT22;5118;48.570;7.916;2022-08-01T03:45:05;19.30;99.90
10155;DHT22;5118;48.570;7.916;2022-08-01T03:47:43;19.30;99.90
10155;DHT22;5118;48.570;7.916;2022-08-01T03:50:12;19.20;99.90
10155;DHT22;5118;48.570;7.916;2022-08-01T03:52:44;19.20;99.90
10155;DHT22;5118;48.570;7.916;2022-08-01T03:55:14;19.20;99.90
10155;DHT22;5118;48.570;7.916;2022-08-01T03:57:45;19.20;99.90
10155;DHT22;5118;48.570;7.916;2022-08-01T04:00:14;19.20;99.90
10155;DHT22;5118;48.570;7.916;2022-08-01T04:02:49;19.20;99.90
10155;DHT22;5118;48.570;7.916;2022-08-01T04:05:18;19.10;99.90
10155;DHT22;5118;48.570;7.916;2022-08-01T04:07:47;19.10;99.90
10155;DHT22;5118;48.570;7.916;2022-08-01T04:10:22;19.10;99.90
10155;DHT22;5118;48.570;7.916;2022-08-01T04:12:51;19.10;99.90
10155;DHT22;5118;48.570;7.916;2022-08-01T04:15:20;19.10;99.90
10155;DHT22;5118;48.570;7.916;2022-08-01T04:17:50;19.10;99.90
10155;DHT22;5118;48.570;7.916;2022-08-01T04:20:21;19.10;99.90
10155;DHT22;5118;48.570;7.916;2022-08-01T04:22:50;19.10;99.90
10155;DHT22;5118;48.570;7.916;2022-08-01T04:25:21;19.10;99.90
10155;DHT22;5118;48.570;7.916;2022-08-01T04:27:53;19.10;99.90
10155;DHT22;5118;48.570;7.916;2022-08-01T04:30:26;19.10;99.90
10155;DHT22;5118;48.570;7.916;2022-08-01T04:32:59;19.10;99.90
10155;DHT22;5118;48.570;7.916;2022-08-01T04:35:29;19.20;99.90
10155;DHT22;5118;48.570;7.916;2022-08-01T04:38:21;19.20;99.90
10155;DHT22;5118;48.570;7.916;2022-08-01T04:40:51;19.30;99.90
10155;DHT22;5118;48.570;7.916;2022-08-01T04:43:20;19.30;99.90
10155;DHT22;5118;48.570;7.916;2022-08-01T04:45:51;19.40;99.90
10155;DHT22;5118;48.570;7.916;2022-08-01T04:48:21;19.50;99.90
10155;DHT22;5118;48.570;7.916;2022-08-01T04:50:52;19.60;99.90
10155;DHT22;5118;48.570;7.916;2022-08-01T04:53:21;19.70;99.90
10155;DHT22;5118;48.570;7.916;2022-08-01T04:55:52;19.90;99.90
10155;DHT22;5118;48.570;7.916;2022-08-01T04:58:21;19.90;99.90
10155;DHT22;5118;48.570;7.916;2022-08-01T05:00:50;20.00;99.90
10155;DHT22;5118;48.570;7.916;2022-08-01T05:03:19;20.20;99.90
10155;DHT22;5118;48.570;7.916;2022-08-01T05:05:49;20.30;99.90
10155;DHT22;5118;48.570;7.916;2022-08-01T05:08:17;20.40;99.90
10155;DHT22;5118;48.570;7.916;2022-08-01T05:10:45;20.50;99.90
10155;DHT22;5118;48.570;7.916;2022-08-01T05:13:14;20.60;99.90
10155;DHT22;5118;48.570;7.916;2022-08-01T05:15:42;20.60;99.90
10155;DHT22;5118;48.570;7.916;2022-08-01T05:18:11;20.70;99.90
10155;DHT22;5118;48.570;7.916;2022-08-01T05:20:40;20.70;99.90
10155;DHT22;5118;48.570;7.916;2022-08-01T05:23:11;20.70;99.90
10155;DHT22;5118;48.570;7.916;2022-08-01T05:25:59;20.80;99.90
10155;DHT22;5118;48.570;7.916;2022-08-01T05:28:28;20.90;99.90
10155;DHT22;5118;48.570;7.916;2022-08-01T05:30:56;20.90;99.90
10155;DHT22;5118;48.570;7.916;2022-08-01T05:33:25;21.00;99.90
10155;DHT22;5118;48.570;7.916;2022-08-01T05:35:53;21.10;99.90
10155;DHT22;5118;48.570;7.916;2022-08-01T05:38:23;21.20;99.90
10155;DHT22;5118;48.570;7.916;2022-08-01T05:40:52;21.30;99.90
10155;DHT22;5118;48.570;7.916;2022-08-01T05:43:20;21.30;99.90
10155;DHT22;5118;48.570;7.916;2022-08-01T05:45:54;21.40;99.90
10155;DHT22;5118;48.570;7.916;2022-08-01T05:48:23;21.50;99.90
10155;DHT22;5118;48.570;7.916;2022-08-01T05:50:52;21.60;99.90
10155;DHT22;5118;48.570;7.916;2022-08-01T05:53:26;21.70;99.90
10155;DHT22;5118;48.570;7.916;2022-08-01T05:55:55;21.80;99.90
10155;DHT22;5118;48.570;7.916;2022-08-01T05:58:24;22.00;99.90
10155;DHT22;5118;48.570;7.916;2022-08-01T06:00:52;22.10;99.90
10155;DHT22;5118;48.570;7.916;2022-08-01T06:03:21;22.20;99.90
10155;DHT22;5118;48.570;7.916;2022-08-01T06:05:50;22.30;99.90
10155;DHT22;5118;48.570;7.916;2022-08-01T06:08:19;22.30;99.90
10155;DHT22;5118;48.570;7.916;2022-08-01T06:10:49;22.40;99.90
10155;DHT22;5118;48.570;7.916;2022-08-01T06:13:18;22.60;99.90
10155;DHT22;5118;48.570;7.916;2022-08-01T06:15:47;22.70;99.90
10155;DHT22;5118;48.570;7.916;2022-08-01T06:18:16;22.80;99.90
10155;DHT22;5118;48.570;7.916;2022-08-01T06:20:45;22.90;99.90
10155;DHT22;5118;48.570;7.916;2022-08-01T06:23:14;23.00;99.90
10155;DHT22;5118;48.570;7.916;2022-08-01T06:26:00;23.10;99.90
10155;DHT22;5118;48.570;7.916;2022-08-01T06:28:28;23.10;99.90
10155;DHT22;5118;48.570;7.916;2022-08-01T06:30:57;23.20;99.90
10155;DHT22;5118;48.570;7.916;2022-08-01T06:33:26;23.30;99.90
10155;DHT22;5118;48.570;7.916;2022-08-01T06:35:55;23.40;99.90
10155;DHT22;5118;48.570;7.916;2022-08-01T06:38:24;23.40;99.90
10155;DHT22;5118;48.570;7.916;2022-08-01T06:40:52;23.50;99.90
10155;DHT22;5118;48.570;7.916;2022-08-01T06:43:22;23.70;99.90
10155;DHT22;5118;48.570;7.916;2022-08-01T06:45:51;23.70;99.90
10155;DHT22;5118;48.570;7.916;2022-08-01T06:48:19;23.80;99.90
10155;DHT22;5118;48.570;7.916;2022-08-01T06:50:48;23.90;99.90
10155;DHT22;5118;48.570;7.916;2022-08-01T06:53:36;24.00;99.90
10155;DHT22;5118;48.570;7.916;2022-08-01T06:56:05;24.10;99.90
10155;DHT22;5118;48.570;7.916;2022-08-01T06:58:37;24.30;99.90
10155;DHT22;5118;48.570;7.916;2022-08-01T07:01:06;24.50;99.90
10155;DHT22;5118;48.570;7.916;2022-08-01T07:03:35;24.70;99.90
10155;DHT22;5118;48.570;7.916;2022-08-01T07:06:22;24.90;99.90
10155;DHT22;5118;48.570;7.916;2022-08-01T07:08:51;25.10;99.90
10155;DHT22;5118;48.570;7.916;2022-08-01T07:11:20;25.30;99.90
10155;DHT22;5118;48.570;7.916;2022-08-01T07:13:50;25.40;99.90
10155;DHT22;5118;48.570;7.916;2022-08-01T07:16:18;25.60;99.90
10155;DHT22;5118;48.570;7.916;2022-08-01T07:18:47;25.80;99.90
10155;DHT22;5118;48.570;7.916;2022-08-01T07:21:16;25.90;99.90
10155;DHT22;5118;48.570;7.916;2022-08-01T07:24:05;26.10;99.90
10155;DHT22;5118;48.570;7.916;2022-08-01T07:26:41;26.20;99.90
10155;DHT22;5118;48.570;7.916;2022-08-01T07:29:23;26.40;99.90
10155;DHT22;5118;48.570;7.916;2022-08-01T07:31:52;26.60;99.90
10155;DHT22;5118;48.570;7.916;2022-08-01T07:34:22;26.70;99.90
10155;DHT22;5118;48.570;7.916;2022-08-01T07:36:52;26.80;99.90
10155;DHT22;5118;48.570;7.916;2022-08-01T07:39:21;27.00;99.90
10155;DHT22;5118;48.570;7.916;2022-08-01T07:41:49;27.10;99.90
10155;DHT22;5118;48.570;7.916;2022-08-01T07:44:35;27.20;99.90
10155;DHT22;5118;48.570;7.916;2022-08-01T07:47:05;27.30;99.90
10155;DHT22;5118;48.570;7.916;2022-08-01T07:49:33;27.40;99.90
10155;DHT22;5118;48.570;7.916;2022-08-01T07:52:07;27.40;99.90
10155;DHT22;5118;48.570;7.916;2022-08-01T07:54:36;27.40;99.90
10155;DHT22;5118;48.570;7.916;2022-08-01T07:57:04;27.40;99.90
10155;DHT22;5118;48.570;7.916;2022-08-01T07:59:35;27.40;99.80
10155;DHT22;5118;48.570;7.916;2022-08-01T08:02:03;27.50;99.60
10155;DHT22;5118;48.570;7.916;2022-08-01T08:04:32;27.50;99.40
10155;DHT22;5118;48.570;7.916;2022-08-01T08:07:01;27.50;99.10
10155;DHT22;5118;48.570;7.916;2022-08-01T08:09:30;27.40;98.90
10155;DHT22;5118;48.570;7.916;2022-08-01T08:12:05;27.40;99.00
10155;DHT22;5118;48.570;7.916;2022-08-01T08:14:36;27.30;98.80
10155;DHT22;5118;48.570;7.916;2022-08-01T08:17:05;27.20;99.10
10155;DHT22;5118;48.570;7.916;2022-08-01T08:19:34;27.10;99.10
10155;DHT22;5118;48.570;7.916;2022-08-01T08:22:06;27.00;99.10
10155;DHT22;5118;48.570;7.916;2022-08-01T08:24:37;27.10;99.10
10155;DHT22;5118;48.570;7.916;2022-08-01T08:27:13;27.10;99.00
10155;DHT22;5118;48.570;7.916;2022-08-01T08:29:43;27.10;98.90
10155;DHT22;5118;48.570;7.916;2022-08-01T08:32:12;27.20;98.70
10155;DHT22;5118;48.570;7.916;2022-08-01T08:34:41;27.20;98.50
10155;DHT22;5118;48.570;7.916;2022-08-01T08:37:10;27.20;98.30
10155;DHT22;5118;48.570;7.916;2022-08-01T08:39:39;27.20;98.30
10155;DHT22;5118;48.570;7.916;2022-08-01T08:42:09;27.20;98.30
10155;DHT22;5118;48.570;7.916;2022-08-01T08:44:40;27.20;98.20
10155;DHT22;5118;48.570;7.916;2022-08-01T08:47:13;27.20;98.20
10155;DHT22;5118;48.570;7.916;2022-08-01T08:49:47;27.30;98.10
10155;DHT22;5118;48.570;7.916;2022-08-01T08:52:17;27.30;98.10
10155;DHT22;5118;48.570;7.916;2022-08-01T08:54:48;27.30;98.10
10155;DHT22;5118;48.570;7.916;2022-08-01T08:57:19;27.40;97.70
10155;DHT22;5118;48.570;7.916;2022-08-01T08:59:48;27.50;97.50
10155;DHT22;5118;48.570;7.916;2022-08-01T09:02:20;27.60;97.30
10155;DHT22;5118;48.570;7.916;2022-08-01T09:04:50;27.50;97.30
10155;DHT22;5118;48.570;7.916;2022-08-01T09:07:19;27.50;97.20
10155;DHT22;5118;48.570;7.916;2022-08-01T09:09:47;27.60;97.00
10155;DHT22;5118;48.570;7.916;2022-08-01T09:12:18;27.70;96.90
10155;DHT22;5118;48.570;7.916;2022-08-01T09:14:47;27.60;96.60
10155;DHT22;5118;48.570;7.916;2022-08-01T09:17:22;27.70;96.50
10155;DHT22;5118;48.570;7.916;2022-08-01T09:19:52;27.80;96.40
10155;DHT22;5118;48.570;7.916;2022-08-01T09:22:22;27.90;96.00
10155;DHT22;5118;48.570;7.916;2022-08-01T09:24:58;28.00;95.80
10155;DHT22;5118;48.570;7.916;2022-08-01T09:27:28;28.00;96.20
10155;DHT22;5118;48.570;7.916;2022-08-01T09:30:09;28.00;95.80
10155;DHT22;5118;48.570;7.916;2022-08-01T09:35:35;28.20;95.60
10155;DHT22;5118;48.570;7.916;2022-08-01T09:38:17;28.40;95.10
10155;DHT22;5118;48.570;7.916;2022-08-01T09:40:51;28.50;94.70
10155;DHT22;5118;48.570;7.916;2022-08-01T09:43:24;28.60;94.30
10155;DHT22;5118;48.570;7.916;2022-08-01T09:45:54;28.60;94.00
10155;DHT22;5118;48.570;7.916;2022-08-01T09:48:25;28.70;93.90
10155;DHT22;5118;48.570;7.916;2022-08-01T09:50:58;28.70;94.10
10155;DHT22;5118;48.570;7.916;2022-08-01T09:53:46;28.80;93.90
10155;DHT22;5118;48.570;7.916;2022-08-01T09:56:20;29.10;93.50
10155;DHT22;5118;48.570;7.916;2022-08-01T09:58:54;29.40;92.90
10155;DHT22;5118;48.570;7.916;2022-08-01T10:01:42;29.60;92.20
10155;DHT22;5118;48.570;7.916;2022-08-01T10:04:14;29.80;91.80
10155;DHT22;5118;48.570;7.916;2022-08-01T10:06:48;30.10;91.50
10155;DHT22;5118;48.570;7.916;2022-08-01T10:09:28;30.40;91.10
10155;DHT22;5118;48.570;7.916;2022-08-01T10:12:07;30.70;90.60
10155;DHT22;5118;48.570;7.916;2022-08-01T10:14:42;31.00;90.20
10155;DHT22;5118;48.570;7.916;2022-08-01T10:17:17;31.30;89.40
10155;DHT22;5118;48.570;7.916;2022-08-01T10:19:49;31.60;87.90
10155;DHT22;5118;48.570;7.916;2022-08-01T10:22:27;31.80;85.80
10155;DHT22;5118;48.570;7.916;2022-08-01T10:25:04;32.00;84.40
10155;DHT22;5118;48.570;7.916;2022-08-01T10:27:34;32.10;82.40
10155;DHT22;5118;48.570;7.916;2022-08-01T10:30:06;32.20;81.30
10155;DHT22;5118;48.570;7.916;2022-08-01T10:32:50;32.40;80.00
10155;DHT22;5118;48.570;7.916;2022-08-01T10:35:21;32.60;78.70
10155;DHT22;5118;48.570;7.916;2022-08-01T10:38:13;32.70;77.40
10155;DHT22;5118;48.570;7.916;2022-08-01T10:40:43;32.80;76.30
10155;DHT22;5118;48.570;7.916;2022-08-01T10:43:13;33.10;76.50
10155;DHT22;5118;48.570;7.916;2022-08-01T10:45:49;33.30;74.40
10155;DHT22;5118;48.570;7.916;2022-08-01T10:48:22;33.50;72.80
10155;DHT22;5118;48.570;7.916;2022-08-01T10:50:58;33.50;71.40
10155;DHT22;5118;48.570;7.916;2022-08-01T10:53:29;33.70;70.60
10155;DHT22;5118;48.570;7.916;2022-08-01T10:56:09;33.80;68.90
10155;DHT22;5118;48.570;7.916;2022-08-01T10:58:44;33.80;68.20
10155;DHT22;5118;48.570;7.916;2022-08-01T11:01:21;33.80;67.10
10155;DHT22;5118;48.570;7.916;2022-08-01T11:04:05;33.70;65.90
10155;DHT22;5118;48.570;7.916;2022-08-01T11:06:53;33.50;66.00
10155;DHT22;5118;48.570;7.916;2022-08-01T11:09:39;33.50;66.60
10155;DHT22;5118;48.570;7.916;2022-08-01T11:12:11;33.50;65.60
10155;DHT22;5118;48.570;7.916;2022-08-01T11:15:20;33.50;66.00
10155;DHT22;5118;48.570;7.916;2022-08-01T11:18:02;33.70;65.00
10155;DHT22;5118;48.570;7.916;2022-08-01T11:20:34;34.10;64.40
10155;DHT22;5118;48.570;7.916;2022-08-01T11:23:18;34.30;63.30
10155;DHT22;5118;48.570;7.916;2022-08-01T11:26:09;34.80;60.80
10155;DHT22;5118;48.570;7.916;2022-08-01T11:28:39;35.40;59.40
10155;DHT22;5118;48.570;7.916;2022-08-01T11:31:30;35.80;57.70
10155;DHT22;5118;48.570;7.916;2022-08-01T11:34:05;35.90;55.70
10155;DHT22;5118;48.570;7.916;2022-08-01T11:36:35;36.00;54.80
10155;DHT22;5118;48.570;7.916;2022-08-01T11:39:25;36.40;55.00
10155;DHT22;5118;48.570;7.916;2022-08-01T11:42:18;37.40;53.50
10155;DHT22;5118;48.570;7.916;2022-08-01T11:44:49;37.80;48.80
10155;DHT22;5118;48.570;7.916;2022-08-01T11:47:42;38.10;49.20
10155;DHT22;5118;48.570;7.916;2022-08-01T11:50:30;38.20;47.20
10155;DHT22;5118;48.570;7.916;2022-08-01T11:53:00;37.80;47.80
10155;DHT22;5118;48.570;7.916;2022-08-01T11:55:30;36.90;48.30
10155;DHT22;5118;48.570;7.916;2022-08-01T11:58:05;36.10;48.70
10155;DHT22;5118;48.570;7.916;2022-08-01T12:00:54;34.90;50.80
10155;DHT22;5118;48.570;7.916;2022-08-01T12:03:25;34.20;51.90
10155;DHT22;5118;48.570;7.916;2022-08-01T12:06:00;33.80;53.20
10155;DHT22;5118;48.570;7.916;2022-08-01T12:08:31;34.20;54.50
10155;DHT22;5118;48.570;7.916;2022-08-01T12:11:04;35.30;51.80
10155;DHT22;5118;48.570;7.916;2022-08-01T12:13:42;36.20;50.80
10155;DHT22;5118;48.570;7.916;2022-08-01T12:16:12;37.60;48.20
10155;DHT22;5118;48.570;7.916;2022-08-01T12:18:42;38.90;47.20
10155;DHT22;5118;48.570;7.916;2022-08-01T12:21:11;39.70;44.10
10155;DHT22;5118;48.570;7.916;2022-08-01T12:23:40;40.10;42.20
10155;DHT22;5118;48.570;7.916;2022-08-01T12:26:08;40.80;40.80
10155;DHT22;5118;48.570;7.916;2022-08-01T12:28:58;41.40;39.60
10155;DHT22;5118;48.570;7.916;2022-08-01T12:31:31;41.30;37.00
10155;DHT22;5118;48.570;7.916;2022-08-01T12:37:02;39.70;38.50
10155;DHT22;5118;48.570;7.916;2022-08-01T12:39:33;39.60;39.90
10155;DHT22;5118;48.570;7.916;2022-08-01T12:42:07;40.40;39.00
10155;DHT22;5118;48.570;7.916;2022-08-01T12:44:41;41.20;37.40
10155;DHT22;5118;48.570;7.916;2022-08-01T12:47:11;42.30;36.60
10155;DHT22;5118;48.570;7.916;2022-08-01T12:49:42;43.20;34.30
10155;DHT22;5118;48.570;7.916;2022-08-01T12:52:12;43.50;32.90
10155;DHT22;5118;48.570;7.916;2022-08-01T12:55:06;43.50;32.70
10155;DHT22;5118;48.570;7.916;2022-08-01T12:57:38;43.80;30.60
10155;DHT22;5118;48.570;7.916;2022-08-01T13:00:14;43.90;30.80
10155;DHT22;5118;48.570;7.916;2022-08-01T13:02:45;43.20;30.20
10155;DHT22;5118;48.570;7.916;2022-08-01T13:05:14;42.50;30.50
10155;DHT22;5118;48.570;7.916;2022-08-01T13:07:46;41.80;31.60
10155;DHT22;5118;48.570;7.916;2022-08-01T13:10:26;40.90;32.00
10155;DHT22;5118;48.570;7.916;2022-08-01T13:12:57;39.80;32.90
10155;DHT22;5118;48.570;7.916;2022-08-01T13:15:30;38.90;34.10
10155;DHT22;5118;48.570;7.916;2022-08-01T13:18:24;38.20;34.90
10155;DHT22;5118;48.570;7.916;2022-08-01T13:21:10;38.30;37.00
10155;DHT22;5118;48.570;7.916;2022-08-01T13:23:40;39.30;35.00
10155;DHT22;5118;48.570;7.916;2022-08-01T13:26:50;40.10;34.30
10155;DHT22;5118;48.570;7.916;2022-08-01T13:29:20;39.80;33.20
10155;DHT22;5118;48.570;7.916;2022-08-01T13:31:51;39.00;33.90
10155;DHT22;5118;48.570;7.916;2022-08-01T13:34:29;38.20;34.80
10155;DHT22;5118;48.570;7.916;2022-08-01T13:36:58;37.40;35.80
10155;DHT22;5118;48.570;7.916;2022-08-01T13:39:33;36.50;36.80
10155;DHT22;5118;48.570;7.916;2022-08-01T13:42:13;35.90;37.50
10155;DHT22;5118;48.570;7.916;2022-08-01T13:44:45;35.50;38.10
10155;DHT22;5118;48.570;7.916;2022-08-01T13:47:15;35.40;38.80
10155;DHT22;5118;48.570;7.916;2022-08-01T13:49:55;35.90;38.90
10155;DHT22;5118;48.570;7.916;2022-08-01T13:52:28;36.40;38.10
10155;DHT22;5118;48.570;7.916;2022-08-01T13:54:58;36.30;37.70
10155;DHT22;5118;48.570;7.916;2022-08-01T13:57:27;36.20;38.00
10155;DHT22;5118;48.570;7.916;2022-08-01T14:00:05;35.90;38.30
10155;DHT22;5118;48.570;7.916;2022-08-01T14:02:39;35.40;38.60
10155;DHT22;5118;48.570;7.916;2022-08-01T14:05:08;35.00;39.50
10155;DHT22;5118;48.570;7.916;2022-08-01T14:07:37;34.60;40.20
10155;DHT22;5118;48.570;7.916;2022-08-01T14:10:07;34.10;41.10
10155;DHT22;5118;48.570;7.916;2022-08-01T14:12:46;33.60;41.80
10155;DHT22;5118;48.570;7.916;2022-08-01T14:15:16;33.20;42.20
10155;DHT22;5118;48.570;7.916;2022-08-01T14:18:06;33.00;42.60
10155;DHT22;5118;48.570;7.916;2022-08-01T14:20:38;32.80;43.30
10155;DHT22;5118;48.570;7.916;2022-08-01T14:23:07;32.60;43.90
10155;DHT22;5118;48.570;7.916;2022-08-01T14:25:36;32.60;44.00
10155;DHT22;5118;48.570;7.916;2022-08-01T14:28:25;32.60;44.70
10155;DHT22;5118;48.570;7.916;2022-08-01T14:30:56;32.60;45.30
10155;DHT22;5118;48.570;7.916;2022-08-01T14:33:26;32.80;45.80
10155;DHT22;5118;48.570;7.916;2022-08-01T14:35:55;33.90;45.70
10155;DHT22;5118;48.570;7.916;2022-08-01T14:38:44;35.60;43.40
10155;DHT22;5118;48.570;7.916;2022-08-01T14:41:13;37.00;40.60
10155;DHT22;5118;48.570;7.916;2022-08-01T14:43:42;37.40;39.00
10155;DHT22;5118;48.570;7.916;2022-08-01T14:46:11;37.50;38.10
10155;DHT22;5118;48.570;7.916;2022-08-01T14:48:41;37.40;37.90
10155;DHT22;5118;48.570;7.916;2022-08-01T14:51:10;37.10;37.80
10155;DHT22;5118;48.570;7.916;2022-08-01T14:53:39;36.70;38.00
10155;DHT22;5118;48.570;7.916;2022-08-01T14:56:13;36.20;38.30
10155;DHT22;5118;48.570;7.916;2022-08-01T14:58:41;35.70;38.90
10155;DHT22;5118;48.570;7.916;2022-08-01T15:01:10;35.20;39.50
10155;DHT22;5118;48.570;7.916;2022-08-01T15:03:40;35.10;40.20
10155;DHT22;5118;48.570;7.916;2022-08-01T15:06:09;35.20;39.80
10155;DHT22;5118;48.570;7.916;2022-08-01T15:08:38;35.60;39.90
10155;DHT22;5118;48.570;7.916;2022-08-01T15:11:07;36.00;39.60
10155;DHT22;5118;48.570;7.916;2022-08-01T15:13:35;36.20;38.70
10155;DHT22;5118;48.570;7.916;2022-08-01T15:16:08;36.20;38.40
10155;DHT22;5118;48.570;7.916;2022-08-01T15:18:38;35.50;38.50
10155;DHT22;5118;48.570;7.916;2022-08-01T15:21:10;35.10;39.10
10155;DHT22;5118;48.570;7.916;2022-08-01T15:23:59;34.60;40.00
10155;DHT22;5118;48.570;7.916;2022-08-01T15:26:27;34.00;40.90
10155;DHT22;5118;48.570;7.916;2022-08-01T15:28:56;33.70;41.60
10155;DHT22;5118;48.570;7.916;2022-08-01T15:31:25;33.50;42.00
10155;DHT22;5118;48.570;7.916;2022-08-01T15:33:53;33.50;42.50
10155;DHT22;5118;48.570;7.916;2022-08-01T15:36:23;33.50;42.50
10155;DHT22;5118;48.570;7.916;2022-08-01T15:38:52;33.50;42.40
10155;DHT22;5118;48.570;7.916;2022-08-01T15:41:21;33.50;42.50
10155;DHT22;5118;48.570;7.916;2022-08-01T15:43:49;33.60;42.60
10155;DHT22;5118;48.570;7.916;2022-08-01T15:46:22;33.70;42.50
10155;DHT22;5118;48.570;7.916;2022-08-01T15:48:51;33.80;42.30
10155;DHT22;5118;48.570;7.916;2022-08-01T15:51:20;33.70;42.20
10155;DHT22;5118;48.570;7.916;2022-08-01T15:53:50;33.50;42.50
10155;DHT22;5118;48.570;7.916;2022-08-01T15:56:19;33.10;43.20
10155;DHT22;5118;48.570;7.916;2022-08-01T15:58:47;32.50;44.00
10155;DHT22;5118;48.570;7.916;2022-08-01T16:01:16;32.30;44.70
10155;DHT22;5118;48.570;7.916;2022-08-01T16:03:45;32.20;45.30
10155;DHT22;5118;48.570;7.916;2022-08-01T16:06:14;32.20;45.40
10155;DHT22;5118;48.570;7.916;2022-08-01T16:08:42;32.30;45.50
10155;DHT22;5118;48.570;7.916;2022-08-01T16:11:13;32.30;45.80
10155;DHT22;5118;48.570;7.916;2022-08-01T16:13:42;32.40;45.90
10155;DHT22;5118;48.570;7.916;2022-08-01T16:16:12;32.40;45.70
10155;DHT22;5118;48.570;7.916;2022-08-01T16:18:41;32.40;45.80
10155;DHT22;5118;48.570;7.916;2022-08-01T16:21:10;32.50;45.80
10155;DHT22;5118;48.570;7.916;2022-08-01T16:23:39;32.50;46.20
10155;DHT22;5118;48.570;7.916;2022-08-01T16:26:09;32.50;45.40